sensor_id;sensor_type;location;lat;lon;timestamp;P1;durP1;ratioP1;P2;durP2;ratioP2
66702;SDS011;60933;46.398;-63.798;2023-08-21T00:00:09;2.35;;;1.50;;
66702;SDS011;60933;46.398;-63.798;2023-08-21T00:02:38;3.67;;;1.55;;
66702;SDS011;60933;46.398;-63.798;2023-08-21T00:05:04;4.53;;;1.45;;
66702;SDS011;60933;46.398;-63.798;2023-08-21T00:07:31;3.83;;;1.30;;
66702;SDS011;60933;46.398;-63.798;2023-08-21T00:09:58;3.47;;;1.23;;
66702;SDS011;60933;46.398;-63.798;2023-08-21T00:12:24;4.55;;;1.42;;
66702;SDS011;60933;46.398;-63.798;2023-08-21T00:14:51;3.28;;;1.38;;
66702;SDS011;60933;46.398;-63.798;2023-08-21T00:17:18;4.10;;;1.52;;
66702;SDS011;60933;46.398;-63.798;2023-08-21T00:19:48;2.65;;;1.10;;
66702;SDS011;60933;46.398;-63.798;2023-08-21T00:22:14;2.72;;;1.17;;
66702;SDS011;60933;46.398;-63.798;2023-08-21T00:24:41;4.78;;;1.40;;
66702;SDS011;60933;46.398;-63.798;2023-08-21T00:27:07;2.65;;;0.98;;
66702;SDS011;60933;46.398;-63.798;2023-08-21T00:29:33;3.75;;;1.55;;
66702;SDS011;60933;46.398;-63.798;2023-08-21T00:31:59;2.85;;;1.10;;
66702;SDS011;60933;46.398;-63.798;2023-08-21T00:34:26;6.38;;;1.73;;
66702;SDS011;60933;46.398;-63.798;2023-08-21T00:36:52;4.43;;;1.35;;
66702;SDS011;60933;46.398;-63.798;2023-08-21T00:39:18;4.35;;;1.63;;
66702;SDS011;60933;46.398;-63.798;2023-08-21T00:41:48;3.90;;;1.50;;
66702;SDS011;60933;46.398;-63.798;2023-08-21T00:44:16;3.47;;;1.52;;
66702;SDS011;60933;46.398;-63.798;2023-08-21T00:46:42;3.90;;;1.40;;
66702;SDS011;60933;46.398;-63.798;2023-08-21T00:49:08;2.00;;;1.08;;
66702;SDS011;60933;46.398;-63.798;2023-08-21T00:51:36;2.95;;;1.13;;
66702;SDS011;60933;46.398;-63.798;2023-08-21T00:54:03;3.38;;;1.30;;
66702;SDS011;60933;46.398;-63.798;2023-08-21T00:56:29;4.53;;;1.30;;
66702;SDS011;60933;46.398;-63.798;2023-08-21T00:58:56;4.75;;;1.25;;
66702;SDS011;60933;46.398;-63.798;2023-08-21T01:01:23;3.92;;;1.23;;
66702;SDS011;60933;46.398;-63.798;2023-08-21T01:03:56;2.75;;;1.13;;
66702;SDS011;60933;46.398;-63.798;2023-08-21T01:06:22;3.33;;;1.15;;
66702;SDS011;60933;46.398;-63.798;2023-08-21T01:09:00;3.78;;;1.23;;
66702;SDS011;60933;46.398;-63.798;2023-08-21T01:11:38;3.22;;;1.50;;
66702;SDS011;60933;46.398;-63.798;2023-08-21T01:14:09;2.55;;;1.10;;
66702;SDS011;60933;46.398;-63.798;2023-08-21T01:16:55;4.68;;;1.13;;
66702;SDS011;60933;46.398;-63.798;2023-08-21T01:19:41;5.85;;;1.70;;
66702;SDS011;60933;46.398;-63.798;2023-08-21T01:22:08;3.63;;;1.40;;
66702;SDS011;60933;46.398;-63.798;2023-08-21T01:24:35;4.40;;;1.40;;
66702;SDS011;60933;46.398;-63.798;2023-08-21T01:27:01;4.93;;;1.42;;
66702;SDS011;60933;46.398;-63.798;2023-08-21T01:29:27;5.85;;;1.63;;
66702;SDS011;60933;46.398;-63.798;2023-08-21T01:32:17;3.90;;;1.20;;
66702;SDS011;60933;46.398;-63.798;2023-08-21T01:34:46;3.50;;;1.35;;
66702;SDS011;60933;46.398;-63.798;2023-08-21T01:37:14;4.13;;;1.20;;
66702;SDS011;60933;46.398;-63.798;2023-08-21T01:39:41;5.55;;;1.23;;
66702;SDS011;60933;46.398;-63.798;2023-08-21T01:42:10;3.88;;;1.50;;
66702;SDS011;60933;46.398;-63.798;2023-08-21T01:44:36;2.97;;;1.25;;
66702;SDS011;60933;46.398;-63.798;2023-08-21T01:47:02;4.38;;;1.27;;
66702;SDS011;60933;46.398;-63.798;2023-08-21T01:49:29;3.47;;;1.38;;
66702;SDS011;60933;46.398;-63.798;2023-08-21T01:51:55;4.85;;;1.48;;
66702;SDS011;60933;46.398;-63.798;2023-08-21T01:54:21;3.15;;;1.20;;
66702;SDS011;60933;46.398;-63.798;2023-08-21T01:56:48;3.30;;;1.15;;
66702;SDS011;60933;46.398;-63.798;2023-08-21T01:59:15;5.68;;;1.58;;
66702;SDS011;60933;46.398;-63.798;2023-08-21T02:01:42;3.53;;;1.30;;
66702;SDS011;60933;46.398;-63.798;2023-08-21T02:04:09;4.57;;;1.50;;
66702;SDS011;60933;46.398;-63.798;2023-08-21T02:06:35;4.05;;;1.40;;
66702;SDS011;60933;46.398;-63.798;2023-08-21T02:09:01;6.22;;;1.63;;
66702;SDS011;60933;46.398;-63.798;2023-08-21T02:11:27;5.40;;;1.58;;
66702;SDS011;60933;46.398;-63.798;2023-08-21T02:13:53;3.60;;;1.70;;
66702;SDS011;60933;46.398;-63.798;2023-08-21T02:16:19;3.90;;;1.50;;
66702;SDS011;60933;46.398;-63.798;2023-08-21T02:18:47;6.22;;;1.67;;
66702;SDS011;60933;46.398;-63.798;2023-08-21T02:21:13;3.90;;;1.40;;
66702;SDS011;60933;46.398;-63.798;2023-08-21T02:23:39;6.10;;;1.77;;
66702;SDS011;60933;46.398;-63.798;2023-08-21T02:26:05;7.22;;;1.83;;
66702;SDS011;60933;46.398;-63.798;2023-08-21T02:28:31;6.03;;;1.83;;
66702;SDS011;60933;46.398;-63.798;2023-08-21T02:30:57;4.07;;;1.60;;
66702;SDS011;60933;46.398;-63.798;2023-08-21T02:33:23;7.15;;;1.90;;
66702;SDS011;60933;46.398;-63.798;2023-08-21T02:35:49;3.42;;;1.60;;
66702;SDS011;60933;46.398;-63.798;2023-08-21T02:38:16;4.25;;;1.80;;
66702;SDS011;60933;46.398;-63.798;2023-08-21T02:40:42;5.68;;;1.75;;
66702;SDS011;60933;46.398;-63.798;2023-08-21T02:43:09;4.35;;;1.60;;
66702;SDS011;60933;46.398;-63.798;2023-08-21T02:45:35;4.43;;;1.70;;
66702;SDS011;60933;46.398;-63.798;2023-08-21T02:48:01;5.40;;;1.88;;
66702;SDS011;60933;46.398;-63.798;2023-08-21T02:50:27;5.90;;;1.73;;
66702;SDS011;60933;46.398;-63.798;2023-08-21T02:52:54;3.67;;;1.25;;
66702;SDS011;60933;46.398;-63.798;2023-08-21T02:55:20;5.30;;;1.40;;
66702;SDS011;60933;46.398;-63.798;2023-08-21T02:57:46;7.68;;;2.10;;
66702;SDS011;60933;46.398;-63.798;2023-08-21T03:00:12;6.95;;;1.73;;
66702;SDS011;60933;46.398;-63.798;2023-08-21T03:02:38;3.95;;;1.90;;
66702;SDS011;60933;46.398;-63.798;2023-08-21T03:05:09;5.22;;;1.83;;
66702;SDS011;60933;46.398;-63.798;2023-08-21T03:07:36;6.07;;;1.83;;
66702;SDS011;60933;46.398;-63.798;2023-08-21T03:10:02;5.50;;;1.60;;
66702;SDS011;60933;46.398;-63.798;2023-08-21T03:12:29;4.60;;;1.50;;
66702;SDS011;60933;46.398;-63.798;2023-08-21T03:14:55;5.68;;;1.65;;
66702;SDS011;60933;46.398;-63.798;2023-08-21T03:17:21;7.15;;;1.63;;
66702;SDS011;60933;46.398;-63.798;2023-08-21T03:19:47;5.45;;;2.10;;
66702;SDS011;60933;46.398;-63.798;2023-08-21T03:22:13;6.00;;;1.52;;
66702;SDS011;60933;46.398;-63.798;2023-08-21T03:24:39;5.70;;;2.10;;
66702;SDS011;60933;46.398;-63.798;2023-08-21T03:27:05;7.00;;;1.70;;
66702;SDS011;60933;46.398;-63.798;2023-08-21T03:29:31;6.28;;;1.50;;
66702;SDS011;60933;46.398;-63.798;2023-08-21T03:31:57;6.05;;;1.77;;
66702;SDS011;60933;46.398;-63.798;2023-08-21T03:34:24;4.88;;;1.80;;
66702;SDS011;60933;46.398;-63.798;2023-08-21T03:36:50;5.15;;;2.10;;
66702;SDS011;60933;46.398;-63.798;2023-08-21T03:39:16;4.20;;;1.70;;
66702;SDS011;60933;46.398;-63.798;2023-08-21T03:41:43;6.20;;;1.73;;
66702;SDS011;60933;46.398;-63.798;2023-08-21T03:44:09;5.90;;;2.08;;
66702;SDS011;60933;46.398;-63.798;2023-08-21T03:46:35;5.63;;;1.88;;
66702;SDS011;60933;46.398;-63.798;2023-08-21T03:49:01;5.75;;;1.85;;
66702;SDS011;60933;46.398;-63.798;2023-08-21T03:51:28;6.47;;;1.88;;
66702;SDS011;60933;46.398;-63.798;2023-08-21T03:53:54;8.02;;;1.95;;
66702;SDS011;60933;46.398;-63.798;2023-08-21T03:56:20;4.05;;;1.50;;
66702;SDS011;60933;46.398;-63.798;2023-08-21T03:58:47;3.20;;;1.48;;
66702;SDS011;60933;46.398;-63.798;2023-08-21T04:01:13;6.18;;;1.60;;
66702;SDS011;60933;46.398;-63.798;2023-08-21T04:03:39;5.72;;;1.70;;
66702;SDS011;60933;46.398;-63.798;2023-08-21T04:06:05;4.00;;;1.63;;
66702;SDS011;60933;46.398;-63.798;2023-08-21T04:08:31;5.18;;;1.50;;
66702;SDS011;60933;46.398;-63.798;2023-08-21T04:10:57;4.55;;;1.92;;
66702;SDS011;60933;46.398;-63.798;2023-08-21T04:13:25;4.00;;;1.80;;
66702;SDS011;60933;46.398;-63.798;2023-08-21T04:15:53;3.20;;;1.40;;
66702;SDS011;60933;46.398;-63.798;2023-08-21T04:18:19;6.72;;;1.85;;
66702;SDS011;60933;46.398;-63.798;2023-08-21T04:20:47;4.00;;;1.70;;
66702;SDS011;60933;46.398;-63.798;2023-08-21T04:23:13;2.38;;;1.23;;
66702;SDS011;60933;46.398;-63.798;2023-08-21T04:25:40;6.32;;;2.00;;
66702;SDS011;60933;46.398;-63.798;2023-08-21T04:28:06;4.95;;;2.10;;
66702;SDS011;60933;46.398;-63.798;2023-08-21T04:30:35;5.70;;;2.30;;
66702;SDS011;60933;46.398;-63.798;2023-08-21T04:33:01;4.13;;;1.67;;
66702;SDS011;60933;46.398;-63.798;2023-08-21T04:35:27;3.72;;;2.15;;
66702;SDS011;60933;46.398;-63.798;2023-08-21T04:37:53;7.10;;;2.42;;
66702;SDS011;60933;46.398;-63.798;2023-08-21T04:40:20;6.57;;;2.30;;
66702;SDS011;60933;46.398;-63.798;2023-08-21T04:42:47;6.47;;;2.10;;
66702;SDS011;60933;46.398;-63.798;2023-08-21T04:45:13;3.90;;;1.70;;
66702;SDS011;60933;46.398;-63.798;2023-08-21T04:47:39;4.93;;;1.85;;
66702;SDS011;60933;46.398;-63.798;2023-08-21T04:50:05;6.85;;;2.10;;
66702;SDS011;60933;46.398;-63.798;2023-08-21T04:52:32;6.10;;;2.10;;
66702;SDS011;60933;46.398;-63.798;2023-08-21T04:54:58;6.15;;;2.35;;
66702;SDS011;60933;46.398;-63.798;2023-08-21T04:57:24;4.25;;;1.92;;
66702;SDS011;60933;46.398;-63.798;2023-08-21T04:59:50;5.55;;;2.17;;
66702;SDS011;60933;46.398;-63.798;2023-08-21T05:02:16;5.30;;;2.50;;
66702;SDS011;60933;46.398;-63.798;2023-08-21T05:04:42;7.63;;;2.55;;
66702;SDS011;60933;46.398;-63.798;2023-08-21T05:07:08;5.45;;;2.60;;
66702;SDS011;60933;46.398;-63.798;2023-08-21T05:09:34;5.35;;;2.45;;
66702;SDS011;60933;46.398;-63.798;2023-08-21T05:12:00;6.18;;;2.25;;
66702;SDS011;60933;46.398;-63.798;2023-08-21T05:14:26;7.00;;;2.88;;
66702;SDS011;60933;46.398;-63.798;2023-08-21T05:16:52;8.52;;;2.65;;
66702;SDS011;60933;46.398;-63.798;2023-08-21T05:19:19;4.18;;;2.40;;
66702;SDS011;60933;46.398;-63.798;2023-08-21T05:21:45;5.10;;;2.20;;
66702;SDS011;60933;46.398;-63.798;2023-08-21T05:24:11;5.55;;;2.58;;
66702;SDS011;60933;46.398;-63.798;2023-08-21T05:26:38;6.32;;;2.50;;
66702;SDS011;60933;46.398;-63.798;2023-08-21T05:29:04;5.97;;;2.72;;
66702;SDS011;60933;46.398;-63.798;2023-08-21T05:31:30;7.93;;;2.90;;
66702;SDS011;60933;46.398;-63.798;2023-08-21T05:33:57;7.20;;;3.15;;
66702;SDS011;60933;46.398;-63.798;2023-08-21T05:36:23;4.38;;;2.45;;
66702;SDS011;60933;46.398;-63.798;2023-08-21T05:38:49;5.40;;;2.47;;
66702;SDS011;60933;46.398;-63.798;2023-08-21T05:41:16;6.72;;;2.65;;
66702;SDS011;60933;46.398;-63.798;2023-08-21T05:43:43;7.18;;;2.92;;
66702;SDS011;60933;46.398;-63.798;2023-08-21T05:46:11;6.93;;;2.67;;
66702;SDS011;60933;46.398;-63.798;2023-08-21T05:48:37;10.90;;;3.20;;
66702;SDS011;60933;46.398;-63.798;2023-08-21T05:51:03;6.20;;;2.67;;
66702;SDS011;60933;46.398;-63.798;2023-08-21T05:53:30;6.55;;;2.65;;
66702;SDS011;60933;46.398;-63.798;2023-08-21T05:55:56;9.45;;;2.75;;
66702;SDS011;60933;46.398;-63.798;2023-08-21T05:58:22;7.35;;;2.85;;
66702;SDS011;60933;46.398;-63.798;2023-08-21T06:00:49;6.28;;;2.60;;
66702;SDS011;60933;46.398;-63.798;2023-08-21T06:03:15;6.20;;;2.60;;
66702;SDS011;60933;46.398;-63.798;2023-08-21T06:05:41;6.38;;;2.90;;
66702;SDS011;60933;46.398;-63.798;2023-08-21T06:08:09;7.43;;;2.83;;
66702;SDS011;60933;46.398;-63.798;2023-08-21T06:10:35;6.85;;;2.90;;
66702;SDS011;60933;46.398;-63.798;2023-08-21T06:13:01;8.85;;;3.05;;
66702;SDS011;60933;46.398;-63.798;2023-08-21T06:15:27;8.98;;;2.65;;
66702;SDS011;60933;46.398;-63.798;2023-08-21T06:17:53;5.85;;;2.47;;
66702;SDS011;60933;46.398;-63.798;2023-08-21T06:20:19;6.88;;;3.10;;
66702;SDS011;60933;46.398;-63.798;2023-08-21T06:22:45;5.93;;;2.60;;
66702;SDS011;60933;46.398;-63.798;2023-08-21T06:25:12;7.18;;;2.95;;
66702;SDS011;60933;46.398;-63.798;2023-08-21T06:27:39;7.45;;;3.08;;
66702;SDS011;60933;46.398;-63.798;2023-08-21T06:30:05;7.45;;;3.13;;
66702;SDS011;60933;46.398;-63.798;2023-08-21T06:32:34;7.07;;;3.47;;
66702;SDS011;60933;46.398;-63.798;2023-08-21T06:35:00;7.50;;;2.53;;
66702;SDS011;60933;46.398;-63.798;2023-08-21T06:37:26;9.00;;;3.33;;
66702;SDS011;60933;46.398;-63.798;2023-08-21T06:39:52;7.20;;;3.08;;
66702;SDS011;60933;46.398;-63.798;2023-08-21T06:42:18;7.47;;;2.50;;
66702;SDS011;60933;46.398;-63.798;2023-08-21T06:44:44;6.95;;;2.60;;
66702;SDS011;60933;46.398;-63.798;2023-08-21T06:47:10;7.45;;;3.72;;
66702;SDS011;60933;46.398;-63.798;2023-08-21T06:49:36;8.07;;;2.67;;
66702;SDS011;60933;46.398;-63.798;2023-08-21T06:52:03;8.30;;;2.88;;
66702;SDS011;60933;46.398;-63.798;2023-08-21T06:54:29;7.70;;;3.70;;
66702;SDS011;60933;46.398;-63.798;2023-08-21T06:56:55;6.53;;;3.08;;
66702;SDS011;60933;46.398;-63.798;2023-08-21T06:59:21;7.28;;;3.00;;
66702;SDS011;60933;46.398;-63.798;2023-08-21T07:01:47;6.43;;;2.80;;
66702;SDS011;60933;46.398;-63.798;2023-08-21T07:04:13;5.95;;;3.45;;
66702;SDS011;60933;46.398;-63.798;2023-08-21T07:06:39;6.97;;;3.25;;
66702;SDS011;60933;46.398;-63.798;2023-08-21T07:09:05;7.88;;;2.70;;
66702;SDS011;60933;46.398;-63.798;2023-08-21T07:11:31;4.90;;;2.72;;
66702;SDS011;60933;46.398;-63.798;2023-08-21T07:13:57;6.50;;;3.00;;
66702;SDS011;60933;46.398;-63.798;2023-08-21T07:16:24;7.55;;;3.30;;
66702;SDS011;60933;46.398;-63.798;2023-08-21T07:18:51;5.53;;;2.88;;
66702;SDS011;60933;46.398;-63.798;2023-08-21T07:21:17;6.68;;;2.60;;
66702;SDS011;60933;46.398;-63.798;2023-08-21T07:23:43;5.80;;;2.75;;
66702;SDS011;60933;46.398;-63.798;2023-08-21T07:26:10;8.75;;;3.00;;
66702;SDS011;60933;46.398;-63.798;2023-08-21T07:28:36;6.03;;;3.00;;
66702;SDS011;60933;46.398;-63.798;2023-08-21T07:31:02;5.60;;;2.80;;
66702;SDS011;60933;46.398;-63.798;2023-08-21T07:33:28;5.65;;;2.78;;
66702;SDS011;60933;46.398;-63.798;2023-08-21T07:36:01;5.55;;;3.20;;
66702;SDS011;60933;46.398;-63.798;2023-08-21T07:38:29;5.18;;;2.88;;
66702;SDS011;60933;46.398;-63.798;2023-08-21T07:41:06;6.72;;;2.75;;
66702;SDS011;60933;46.398;-63.798;2023-08-21T07:43:35;5.47;;;2.50;;
66702;SDS011;60933;46.398;-63.798;2023-08-21T07:46:03;6.80;;;3.10;;
66702;SDS011;60933;46.398;-63.798;2023-08-21T07:48:30;7.10;;;2.83;;
66702;SDS011;60933;46.398;-63.798;2023-08-21T07:50:56;8.27;;;3.42;;
66702;SDS011;60933;46.398;-63.798;2023-08-21T07:53:23;6.68;;;3.47;;
66702;SDS011;60933;46.398;-63.798;2023-08-21T07:55:50;6.45;;;3.10;;
66702;SDS011;60933;46.398;-63.798;2023-08-21T07:58:17;8.35;;;3.58;;
66702;SDS011;60933;46.398;-63.798;2023-08-21T08:00:43;8.43;;;3.15;;
66702;SDS011;60933;46.398;-63.798;2023-08-21T08:03:09;5.97;;;3.67;;
66702;SDS011;60933;46.398;-63.798;2023-08-21T08:05:36;8.35;;;3.85;;
66702;SDS011;60933;46.398;-63.798;2023-08-21T08:08:03;9.05;;;4.45;;
66702;SDS011;60933;46.398;-63.798;2023-08-21T08:10:29;8.18;;;3.83;;
66702;SDS011;60933;46.398;-63.798;2023-08-21T08:12:55;10.85;;;4.43;;
66702;SDS011;60933;46.398;-63.798;2023-08-21T08:15:22;10.77;;;4.90;;
66702;SDS011;60933;46.398;-63.798;2023-08-21T08:17:48;8.07;;;4.85;;
66702;SDS011;60933;46.398;-63.798;2023-08-21T08:20:18;9.18;;;4.63;;
66702;SDS011;60933;46.398;-63.798;2023-08-21T08:22:45;12.35;;;4.55;;
66702;SDS011;60933;46.398;-63.798;2023-08-21T08:25:11;10.90;;;5.00;;
66702;SDS011;60933;46.398;-63.798;2023-08-21T08:27:39;13.57;;;5.55;;
66702;SDS011;60933;46.398;-63.798;2023-08-21T08:30:05;10.48;;;5.65;;
66702;SDS011;60933;46.398;-63.798;2023-08-21T08:32:32;11.45;;;5.22;;
66702;SDS011;60933;46.398;-63.798;2023-08-21T08:34:58;11.20;;;5.50;;
66702;SDS011;60933;46.398;-63.798;2023-08-21T08:37:24;10.88;;;5.20;;
66702;SDS011;60933;46.398;-63.798;2023-08-21T08:39:50;13.02;;;5.30;;
66702;SDS011;60933;46.398;-63.798;2023-08-21T08:42:16;13.60;;;5.15;;
66702;SDS011;60933;46.398;-63.798;2023-08-21T08:44:43;9.60;;;4.85;;
66702;SDS011;60933;46.398;-63.798;2023-08-21T08:47:12;12.38;;;5.90;;
66702;SDS011;60933;46.398;-63.798;2023-08-21T08:49:40;10.75;;;4.75;;
66702;SDS011;60933;46.398;-63.798;2023-08-21T08:52:07;13.88;;;5.47;;
66702;SDS011;60933;46.398;-63.798;2023-08-21T08:54:33;12.60;;;5.88;;
66702;SDS011;60933;46.398;-63.798;2023-08-21T08:57:01;12.25;;;5.72;;
66702;SDS011;60933;46.398;-63.798;2023-08-21T08:59:30;10.00;;;5.55;;
66702;SDS011;60933;46.398;-63.798;2023-08-21T09:01:57;11.68;;;5.78;;
66702;SDS011;60933;46.398;-63.798;2023-08-21T09:04:23;14.85;;;6.30;;
66702;SDS011;60933;46.398;-63.798;2023-08-21T09:06:49;9.18;;;5.10;;
66702;SDS011;60933;46.398;-63.798;2023-08-21T09:09:15;12.90;;;5.85;;
66702;SDS011;60933;46.398;-63.798;2023-08-21T09:11:45;13.75;;;6.45;;
66702;SDS011;60933;46.398;-63.798;2023-08-21T09:14:13;13.75;;;6.35;;
66702;SDS011;60933;46.398;-63.798;2023-08-21T09:16:56;16.08;;;6.40;;
66702;SDS011;60933;46.398;-63.798;2023-08-21T09:19:29;13.45;;;6.43;;
66702;SDS011;60933;46.398;-63.798;2023-08-21T09:21:55;13.52;;;6.32;;
66702;SDS011;60933;46.398;-63.798;2023-08-21T09:24:21;12.68;;;6.05;;
66702;SDS011;60933;46.398;-63.798;2023-08-21T09:26:49;10.70;;;6.03;;
66702;SDS011;60933;46.398;-63.798;2023-08-21T09:29:15;14.65;;;7.80;;
66702;SDS011;60933;46.398;-63.798;2023-08-21T09:31:42;15.98;;;7.43;;
66702;SDS011;60933;46.398;-63.798;2023-08-21T09:34:10;12.60;;;6.18;;
66702;SDS011;60933;46.398;-63.798;2023-08-21T09:36:37;15.98;;;7.00;;
66702;SDS011;60933;46.398;-63.798;2023-08-21T09:39:10;13.43;;;6.90;;
66702;SDS011;60933;46.398;-63.798;2023-08-21T09:41:42;15.05;;;7.03;;
66702;SDS011;60933;46.398;-63.798;2023-08-21T09:44:21;13.68;;;7.18;;
66702;SDS011;60933;46.398;-63.798;2023-08-21T09:46:50;15.38;;;8.10;;
66702;SDS011;60933;46.398;-63.798;2023-08-21T09:49:16;15.50;;;7.10;;
66702;SDS011;60933;46.398;-63.798;2023-08-21T09:51:44;14.10;;;6.88;;
66702;SDS011;60933;46.398;-63.798;2023-08-21T09:54:13;15.27;;;7.75;;
66702;SDS011;60933;46.398;-63.798;2023-08-21T09:56:40;14.32;;;7.00;;
66702;SDS011;60933;46.398;-63.798;2023-08-21T09:59:07;15.13;;;7.10;;
66702;SDS011;60933;46.398;-63.798;2023-08-21T10:01:34;15.65;;;7.43;;
66702;SDS011;60933;46.398;-63.798;2023-08-21T10:04:02;15.95;;;7.78;;
66702;SDS011;60933;46.398;-63.798;2023-08-21T10:06:29;14.73;;;7.57;;
66702;SDS011;60933;46.398;-63.798;2023-08-21T10:08:56;15.35;;;7.22;;
66702;SDS011;60933;46.398;-63.798;2023-08-21T10:11:23;16.60;;;8.60;;
66702;SDS011;60933;46.398;-63.798;2023-08-21T10:13:50;16.67;;;7.97;;
66702;SDS011;60933;46.398;-63.798;2023-08-21T10:16:17;13.77;;;7.53;;
66702;SDS011;60933;46.398;-63.798;2023-08-21T10:18:46;20.23;;;8.55;;
66702;SDS011;60933;46.398;-63.798;2023-08-21T10:21:17;15.23;;;7.20;;
66702;SDS011;60933;46.398;-63.798;2023-08-21T10:23:48;18.10;;;8.40;;
66702;SDS011;60933;46.398;-63.798;2023-08-21T10:26:15;14.90;;;8.35;;
66702;SDS011;60933;46.398;-63.798;2023-08-21T10:29:01;19.48;;;10.05;;
66702;SDS011;60933;46.398;-63.798;2023-08-21T10:34:00;18.70;;;9.38;;
66702;SDS011;60933;46.398;-63.798;2023-08-21T10:39:15;19.83;;;9.05;;
66702;SDS011;60933;46.398;-63.798;2023-08-21T10:42:00;18.83;;;9.00;;
66702;SDS011;60933;46.398;-63.798;2023-08-21T10:50:03;18.75;;;9.15;;
66702;SDS011;60933;46.398;-63.798;2023-08-21T10:52:33;19.17;;;9.60;;
66702;SDS011;60933;46.398;-63.798;2023-08-21T10:55:03;17.88;;;9.65;;
66702;SDS011;60933;46.398;-63.798;2023-08-21T10:57:30;16.95;;;8.95;;
66702;SDS011;60933;46.398;-63.798;2023-08-21T11:00:04;16.70;;;8.93;;
66702;SDS011;60933;46.398;-63.798;2023-08-21T11:02:35;22.00;;;11.27;;
66702;SDS011;60933;46.398;-63.798;2023-08-21T11:05:02;20.30;;;10.90;;
66702;SDS011;60933;46.398;-63.798;2023-08-21T11:07:29;19.92;;;10.48;;
66702;SDS011;60933;46.398;-63.798;2023-08-21T11:09:55;22.08;;;11.10;;
66702;SDS011;60933;46.398;-63.798;2023-08-21T11:12:23;23.75;;;12.55;;
66702;SDS011;60933;46.398;-63.798;2023-08-21T11:14:50;22.35;;;10.77;;
66702;SDS011;60933;46.398;-63.798;2023-08-21T11:17:16;19.77;;;10.63;;
66702;SDS011;60933;46.398;-63.798;2023-08-21T11:19:46;24.92;;;12.30;;
66702;SDS011;60933;46.398;-63.798;2023-08-21T11:22:13;23.67;;;11.02;;
66702;SDS011;60933;46.398;-63.798;2023-08-21T11:24:40;23.48;;;11.80;;
66702;SDS011;60933;46.398;-63.798;2023-08-21T11:27:08;23.33;;;12.10;;
66702;SDS011;60933;46.398;-63.798;2023-08-21T11:32:17;22.50;;;11.45;;
66702;SDS011;60933;46.398;-63.798;2023-08-21T11:34:49;22.58;;;11.38;;
66702;SDS011;60933;46.398;-63.798;2023-08-21T11:37:20;22.75;;;11.10;;
66702;SDS011;60933;46.398;-63.798;2023-08-21T11:39:48;25.35;;;12.20;;
66702;SDS011;60933;46.398;-63.798;2023-08-21T11:42:23;30.10;;;12.23;;
66702;SDS011;60933;46.398;-63.798;2023-08-21T11:44:55;21.90;;;11.27;;
66702;SDS011;60933;46.398;-63.798;2023-08-21T11:47:23;24.60;;;12.05;;
66702;SDS011;60933;46.398;-63.798;2023-08-21T11:49:49;24.42;;;13.07;;
66702;SDS011;60933;46.398;-63.798;2023-08-21T11:52:20;26.95;;;13.27;;
66702;SDS011;60933;46.398;-63.798;2023-08-21T11:54:51;24.17;;;12.38;;
66702;SDS011;60933;46.398;-63.798;2023-08-21T11:57:21;24.13;;;12.52;;
66702;SDS011;60933;46.398;-63.798;2023-08-21T11:59:50;26.75;;;14.25;;
66702;SDS011;60933;46.398;-63.798;2023-08-21T12:02:24;25.73;;;13.18;;
66702;SDS011;60933;46.398;-63.798;2023-08-21T12:05:00;24.08;;;12.57;;
66702;SDS011;60933;46.398;-63.798;2023-08-21T12:07:33;25.63;;;13.52;;
66702;SDS011;60933;46.398;-63.798;2023-08-21T12:09:59;24.50;;;11.80;;
66702;SDS011;60933;46.398;-63.798;2023-08-21T12:12:26;21.20;;;11.30;;
66702;SDS011;60933;46.398;-63.798;2023-08-21T12:14:52;21.73;;;11.95;;
66702;SDS011;60933;46.398;-63.798;2023-08-21T12:17:18;25.60;;;12.70;;
66702;SDS011;60933;46.398;-63.798;2023-08-21T12:19:44;21.65;;;12.02;;
66702;SDS011;60933;46.398;-63.798;2023-08-21T12:22:10;23.23;;;12.60;;
66702;SDS011;60933;46.398;-63.798;2023-08-21T12:24:37;23.92;;;13.00;;
66702;SDS011;60933;46.398;-63.798;2023-08-21T12:27:03;24.88;;;13.10;;
66702;SDS011;60933;46.398;-63.798;2023-08-21T12:29:30;23.80;;;13.05;;
66702;SDS011;60933;46.398;-63.798;2023-08-21T12:31:56;23.45;;;12.00;;
66702;SDS011;60933;46.398;-63.798;2023-08-21T12:34:22;24.85;;;12.32;;
66702;SDS011;60933;46.398;-63.798;2023-08-21T12:36:50;23.90;;;12.95;;
66702;SDS011;60933;46.398;-63.798;2023-08-21T12:39:17;24.92;;;12.30;;
66702;SDS011;60933;46.398;-63.798;2023-08-21T12:41:47;28.10;;;13.57;;
66702;SDS011;60933;46.398;-63.798;2023-08-21T12:44:15;28.23;;;12.75;;
66702;SDS011;60933;46.398;-63.798;2023-08-21T12:46:42;25.08;;;12.95;;
66702;SDS011;60933;46.398;-63.798;2023-08-21T12:49:08;24.30;;;11.93;;
66702;SDS011;60933;46.398;-63.798;2023-08-21T12:51:34;24.83;;;12.13;;
66702;SDS011;60933;46.398;-63.798;2023-08-21T12:54:00;25.63;;;13.50;;
66702;SDS011;60933;46.398;-63.798;2023-08-21T12:56:26;24.63;;;11.90;;
66702;SDS011;60933;46.398;-63.798;2023-08-21T12:58:52;23.65;;;12.25;;
66702;SDS011;60933;46.398;-63.798;2023-08-21T13:01:18;25.25;;;12.77;;
66702;SDS011;60933;46.398;-63.798;2023-08-21T13:03:45;23.30;;;12.68;;
66702;SDS011;60933;46.398;-63.798;2023-08-21T13:06:12;21.88;;;11.73;;
66702;SDS011;60933;46.398;-63.798;2023-08-21T13:08:38;22.85;;;10.52;;
66702;SDS011;60933;46.398;-63.798;2023-08-21T13:11:05;22.75;;;11.52;;
66702;SDS011;60933;46.398;-63.798;2023-08-21T13:13:31;23.90;;;11.88;;
66702;SDS011;60933;46.398;-63.798;2023-08-21T13:15:58;23.23;;;11.65;;
66702;SDS011;60933;46.398;-63.798;2023-08-21T13:18:25;23.83;;;12.40;;
66702;SDS011;60933;46.398;-63.798;2023-08-21T13:20:52;23.73;;;11.90;;
66702;SDS011;60933;46.398;-63.798;2023-08-21T13:23:18;24.33;;;11.07;;
66702;SDS011;60933;46.398;-63.798;2023-08-21T13:25:44;24.75;;;14.00;;
66702;SDS011;60933;46.398;-63.798;2023-08-21T13:28:11;25.13;;;13.27;;
66702;SDS011;60933;46.398;-63.798;2023-08-21T13:30:37;24.88;;;13.07;;
66702;SDS011;60933;46.398;-63.798;2023-08-21T13:33:03;25.15;;;12.18;;
66702;SDS011;60933;46.398;-63.798;2023-08-21T13:35:30;21.25;;;11.73;;
66702;SDS011;60933;46.398;-63.798;2023-08-21T13:37:56;26.42;;;12.93;;
66702;SDS011;60933;46.398;-63.798;2023-08-21T13:40:23;26.20;;;12.15;;
66702;SDS011;60933;46.398;-63.798;2023-08-21T13:42:50;22.90;;;11.18;;
66702;SDS011;60933;46.398;-63.798;2023-08-21T13:45:17;26.90;;;11.75;;
66702;SDS011;60933;46.398;-63.798;2023-08-21T13:47:44;24.08;;;11.80;;
66702;SDS011;60933;46.398;-63.798;2023-08-21T13:50:13;24.90;;;12.80;;
66702;SDS011;60933;46.398;-63.798;2023-08-21T13:52:40;23.70;;;12.82;;
66702;SDS011;60933;46.398;-63.798;2023-08-21T13:55:07;27.98;;;13.20;;
66702;SDS011;60933;46.398;-63.798;2023-08-21T13:57:35;25.83;;;12.80;;
66702;SDS011;60933;46.398;-63.798;2023-08-21T14:00:05;25.45;;;13.05;;
66702;SDS011;60933;46.398;-63.798;2023-08-21T14:02:33;23.40;;;12.18;;
66702;SDS011;60933;46.398;-63.798;2023-08-21T14:05:03;24.70;;;13.10;;
66702;SDS011;60933;46.398;-63.798;2023-08-21T14:07:33;26.67;;;12.32;;
66702;SDS011;60933;46.398;-63.798;2023-08-21T14:10:00;23.23;;;13.10;;
66702;SDS011;60933;46.398;-63.798;2023-08-21T14:12:29;24.27;;;12.35;;
66702;SDS011;60933;46.398;-63.798;2023-08-21T14:14:56;24.30;;;11.43;;
66702;SDS011;60933;46.398;-63.798;2023-08-21T14:17:27;24.83;;;11.38;;
66702;SDS011;60933;46.398;-63.798;2023-08-21T14:19:53;23.00;;;11.82;;
66702;SDS011;60933;46.398;-63.798;2023-08-21T14:22:20;23.77;;;11.35;;
66702;SDS011;60933;46.398;-63.798;2023-08-21T14:24:46;22.05;;;11.75;;
66702;SDS011;60933;46.398;-63.798;2023-08-21T14:27:12;26.23;;;12.65;;